Somerset, Michigan
Current Conditions -  °F | °C
As of 9:14 PM on Monday 24 Nov 2014 (Local Time) from KJYM Reporting Station
Overcast Overcast  
Wind Chill: 22°   Ceiling: 1600
Heat Index: 33°   Visibility: 10mi
Dew Point: 28°   Wind: 17mph
Humidity: 83%   Direction: 240°WSW
Pressure: 29.65"   Gusts: 31mph
Location:  42.05°N, 84.38°W
Report Text: KJYM 250214Z AUTO 24015G27KT 10SM OVC016 01/M02 A2965 RMK AO2 T00061020
Loading
Personal Weather Stations






























Interactive Weather Map New forecast layout! Learn more

10-Day Weather Forecast

Advertisements
Track Severe Weather on mobile